Terminal Aerodrome Forecast
Issued by NWS Amarillo, TX

Home | Current Version | Previous Version | Text Only | Print | Product List | Glossary On
Versions: 1 2 3 4 5 6 7 8 9 10 11 12 13 14 15 16
000
FTUS44 KAMA 102341
TAFDHT
TAF
KDHT 102341Z 1100/1124 22012G20KT P6SM SCT300 WS009/24046KT
     FM110600 22018KT P6SM BKN250
     FM111100 26012KT P6SM BKN250
     FM111400 34013KT P6SM BKN250
     FM112100 07011KT P6SM BKN250=

USA.gov is the U.S. government's official web portal to all federal, state and local government web resources and services.